Saint Germain, Wisconsin
Current Conditions -  °F | °C
As of 7:15 AM on Wednesday 22 Oct 2014 (Local Time) from KEGV Reporting Station
Moderate Fog Moderate Fog  
Wind Chill: 29°   Ceiling: 200
Heat Index: 29°   Visibility: 0mi
Dew Point: 29°   Wind: 0mph
Humidity: 100%   Direction: NA
Pressure: 30.32"   Gusts: NA
Location:  45.9°N, 89.49°W
Report Text: KEGV 221215Z AUTO 00000KT M1/4SM FZFG OVC002 M02/M02 A3032 RMK AO2 T10161016
Loading
Personal Weather Stations






























Interactive Weather Map New forecast layout! Learn more

10-Day Weather Forecast

Advertisements
Track Severe Weather on mobile